sensor_id;sensor_type;location;lat;lon;timestamp;noise_LAeq;noise_LA_min;noise_LA_max;noise_LA01;noise_LA95
72160;Laerm;60045;51.792;10.938;2023-07-13T00:02:15;28.99;27.85;38.61;;
72160;Laerm;60045;51.792;10.938;2023-07-13T00:04:41;52.77;27.77;68.81;;
72160;Laerm;60045;51.792;10.938;2023-07-13T00:07:07;28.65;27.63;33.33;;
72160;Laerm;60045;51.792;10.938;2023-07-13T00:09:33;28.75;27.64;42.60;;
72160;Laerm;60045;51.792;10.938;2023-07-13T00:11:58;30.60;27.75;43.61;;
72160;Laerm;60045;51.792;10.938;2023-07-13T00:14:25;49.73;27.28;66.94;;
72160;Laerm;60045;51.792;10.938;2023-07-13T00:16:51;28.21;27.25;33.37;;
72160;Laerm;60045;51.792;10.938;2023-07-13T00:19:17;28.12;27.30;33.13;;
72160;Laerm;60045;51.792;10.938;2023-07-13T00:21:42;28.05;27.21;31.71;;
72160;Laerm;60045;51.792;10.938;2023-07-13T00:24:10;28.06;27.32;31.70;;
72160;Laerm;60045;51.792;10.938;2023-07-13T00:26:40;28.21;27.20;34.53;;
72160;Laerm;60045;51.792;10.938;2023-07-13T00:29:10;28.42;27.41;36.75;;
72160;Laerm;60045;51.792;10.938;2023-07-13T00:31:36;32.02;27.58;42.29;;
72160;Laerm;60045;51.792;10.938;2023-07-13T00:34:02;52.13;27.81;69.81;;
72160;Laerm;60045;51.792;10.938;2023-07-13T00:36:29;28.83;27.59;35.49;;
72160;Laerm;60045;51.792;10.938;2023-07-13T00:38:54;28.88;27.51;38.15;;
72160;Laerm;60045;51.792;10.938;2023-07-13T00:41:20;28.74;27.34;33.77;;
72160;Laerm;60045;51.792;10.938;2023-07-13T00:43:46;27.97;27.26;30.40;;
72160;Laerm;60045;51.792;10.938;2023-07-13T00:46:14;28.26;27.30;39.14;;
72160;Laerm;60045;51.792;10.938;2023-07-13T00:48:40;32.24;27.48;49.56;;
72160;Laerm;60045;51.792;10.938;2023-07-13T00:51:06;49.05;27.50;66.25;;
72160;Laerm;60045;51.792;10.938;2023-07-13T00:53:32;54.63;27.32;72.01;;
72160;Laerm;60045;51.792;10.938;2023-07-13T00:55:58;28.57;27.50;37.67;;
72160;Laerm;60045;51.792;10.938;2023-07-13T00:58:25;31.74;27.72;43.87;;
72160;Laerm;60045;51.792;10.938;2023-07-13T01:00:52;59.28;27.80;75.96;;
72160;Laerm;60045;51.792;10.938;2023-07-13T01:03:18;31.89;27.53;42.50;;
72160;Laerm;60045;51.792;10.938;2023-07-13T01:05:44;53.27;27.79;71.40;;
72160;Laerm;60045;51.792;10.938;2023-07-13T01:08:12;56.31;28.11;76.45;;
72160;Laerm;60045;51.792;10.938;2023-07-13T01:10:38;33.02;28.38;49.39;;
72160;Laerm;60045;51.792;10.938;2023-07-13T01:13:07;50.76;29.12;68.23;;
72160;Laerm;60045;51.792;10.938;2023-07-13T01:17:59;36.07;29.49;51.85;;
72160;Laerm;60045;51.792;10.938;2023-07-13T01:20:25;34.67;29.68;49.07;;
72160;Laerm;60045;51.792;10.938;2023-07-13T01:22:51;32.91;29.30;46.21;;
72160;Laerm;60045;51.792;10.938;2023-07-13T01:25:17;55.07;28.85;73.96;;
72160;Laerm;60045;51.792;10.938;2023-07-13T01:27:43;59.25;28.96;78.14;;
72160;Laerm;60045;51.792;10.938;2023-07-13T01:30:09;32.02;28.44;49.72;;
72160;Laerm;60045;51.792;10.938;2023-07-13T01:32:35;30.38;28.22;42.50;;
72160;Laerm;60045;51.792;10.938;2023-07-13T01:35:01;30.18;28.30;42.71;;
72160;Laerm;60045;51.792;10.938;2023-07-13T01:37:27;31.06;28.36;47.53;;
72160;Laerm;60045;51.792;10.938;2023-07-13T01:40:01;30.85;27.98;50.85;;
72160;Laerm;60045;51.792;10.938;2023-07-13T01:42:28;59.26;28.34;76.61;;
72160;Laerm;60045;51.792;10.938;2023-07-13T01:44:53;32.92;28.49;39.95;;
72160;Laerm;60045;51.792;10.938;2023-07-13T01:47:19;30.03;28.11;41.53;;
72160;Laerm;60045;51.792;10.938;2023-07-13T01:49:45;29.76;28.28;43.27;;
72160;Laerm;60045;51.792;10.938;2023-07-13T01:52:12;29.31;28.12;35.95;;
72160;Laerm;60045;51.792;10.938;2023-07-13T01:54:38;32.11;27.88;48.14;;
72160;Laerm;60045;51.792;10.938;2023-07-13T01:57:03;49.38;28.22;65.51;;
72160;Laerm;60045;51.792;10.938;2023-07-13T01:59:29;29.88;28.06;44.64;;
72160;Laerm;60045;51.792;10.938;2023-07-13T02:01:55;29.23;27.96;40.71;;
72160;Laerm;60045;51.792;10.938;2023-07-13T02:04:21;29.86;27.91;45.08;;
72160;Laerm;60045;51.792;10.938;2023-07-13T02:06:46;33.72;28.50;48.00;;
72160;Laerm;60045;51.792;10.938;2023-07-13T02:09:12;61.78;28.98;77.31;;
72160;Laerm;60045;51.792;10.938;2023-07-13T02:11:38;30.74;28.62;42.93;;
72160;Laerm;60045;51.792;10.938;2023-07-13T02:14:03;29.96;28.38;42.03;;
72160;Laerm;60045;51.792;10.938;2023-07-13T02:16:30;49.14;28.74;66.97;;
72160;Laerm;60045;51.792;10.938;2023-07-13T02:18:55;53.59;27.88;70.99;;
72160;Laerm;60045;51.792;10.938;2023-07-13T02:21:22;31.25;27.73;46.60;;
72160;Laerm;60045;51.792;10.938;2023-07-13T02:23:48;29.17;27.80;36.54;;
72160;Laerm;60045;51.792;10.938;2023-07-13T02:26:14;32.14;27.80;42.86;;
72160;Laerm;60045;51.792;10.938;2023-07-13T02:28:40;35.24;28.02;50.44;;
72160;Laerm;60045;51.792;10.938;2023-07-13T02:31:13;37.38;29.35;49.03;;
72160;Laerm;60045;51.792;10.938;2023-07-13T02:33:39;54.19;30.13;69.88;;
72160;Laerm;60045;51.792;10.938;2023-07-13T02:36:05;36.56;29.19;48.15;;
72160;Laerm;60045;51.792;10.938;2023-07-13T02:38:31;54.35;31.07;71.47;;
72160;Laerm;60045;51.792;10.938;2023-07-13T02:40:58;44.80;30.30;61.84;;
72160;Laerm;60045;51.792;10.938;2023-07-13T02:43:24;56.89;29.27;73.98;;
72160;Laerm;60045;51.792;10.938;2023-07-13T02:45:50;49.06;31.16;65.19;;
72160;Laerm;60045;51.792;10.938;2023-07-13T02:48:16;49.95;30.75;66.42;;
72160;Laerm;60045;51.792;10.938;2023-07-13T02:50:42;49.88;30.37;66.07;;
72160;Laerm;60045;51.792;10.938;2023-07-13T02:53:07;37.41;29.83;46.97;;
72160;Laerm;60045;51.792;10.938;2023-07-13T02:55:33;43.18;30.39;55.75;;
72160;Laerm;60045;51.792;10.938;2023-07-13T02:57:59;42.37;29.60;61.65;;
72160;Laerm;60045;51.792;10.938;2023-07-13T03:00:24;48.65;29.48;65.79;;
72160;Laerm;60045;51.792;10.938;2023-07-13T03:02:50;53.52;29.68;72.28;;
72160;Laerm;60045;51.792;10.938;2023-07-13T03:05:16;53.26;30.23;69.05;;
72160;Laerm;60045;51.792;10.938;2023-07-13T03:07:42;52.83;30.50;71.85;;
72160;Laerm;60045;51.792;10.938;2023-07-13T03:10:09;35.30;30.01;44.96;;
72160;Laerm;60045;51.792;10.938;2023-07-13T03:12:34;53.38;31.11;66.29;;
72160;Laerm;60045;51.792;10.938;2023-07-13T03:15:00;56.30;33.01;72.09;;
72160;Laerm;60045;51.792;10.938;2023-07-13T03:17:26;52.67;28.79;68.20;;
72160;Laerm;60045;51.792;10.938;2023-07-13T03:19:52;36.64;28.80;53.90;;
72160;Laerm;60045;51.792;10.938;2023-07-13T03:22:18;58.98;33.54;74.51;;
72160;Laerm;60045;51.792;10.938;2023-07-13T03:24:44;57.67;30.26;74.85;;
72160;Laerm;60045;51.792;10.938;2023-07-13T03:27:10;47.61;30.17;69.61;;
72160;Laerm;60045;51.792;10.938;2023-07-13T03:29:36;59.11;32.16;72.51;;
72160;Laerm;60045;51.792;10.938;2023-07-13T03:32:01;61.32;33.13;76.46;;
72160;Laerm;60045;51.792;10.938;2023-07-13T03:34:29;60.20;33.91;74.69;;
72160;Laerm;60045;51.792;10.938;2023-07-13T03:36:55;60.08;35.30;75.62;;
72160;Laerm;60045;51.792;10.938;2023-07-13T03:39:20;65.56;34.48;82.51;;
72160;Laerm;60045;51.792;10.938;2023-07-13T03:41:46;59.87;35.60;73.68;;
72160;Laerm;60045;51.792;10.938;2023-07-13T03:44:12;63.53;34.40;80.01;;
72160;Laerm;60045;51.792;10.938;2023-07-13T03:46:38;60.35;36.58;73.19;;
72160;Laerm;60045;51.792;10.938;2023-07-13T03:49:04;60.93;33.22;75.46;;
72160;Laerm;60045;51.792;10.938;2023-07-13T03:51:30;52.86;29.98;69.66;;
72160;Laerm;60045;51.792;10.938;2023-07-13T03:53:56;55.97;31.91;69.13;;
72160;Laerm;60045;51.792;10.938;2023-07-13T03:56:22;64.04;32.52;79.13;;
72160;Laerm;60045;51.792;10.938;2023-07-13T03:58:48;59.07;31.67;74.86;;
72160;Laerm;60045;51.792;10.938;2023-07-13T04:01:14;53.84;30.25;71.72;;
72160;Laerm;60045;51.792;10.938;2023-07-13T04:03:41;58.10;35.35;69.93;;
72160;Laerm;60045;51.792;10.938;2023-07-13T04:06:08;60.12;33.51;75.71;;
72160;Laerm;60045;51.792;10.938;2023-07-13T04:08:40;57.94;31.27;72.05;;
72160;Laerm;60045;51.792;10.938;2023-07-13T04:11:06;58.96;31.40;71.22;;
72160;Laerm;60045;51.792;10.938;2023-07-13T04:13:32;55.94;29.34;72.10;;
72160;Laerm;60045;51.792;10.938;2023-07-13T04:15:58;61.01;32.64;78.15;;
72160;Laerm;60045;51.792;10.938;2023-07-13T04:18:23;64.04;37.50;81.01;;
72160;Laerm;60045;51.792;10.938;2023-07-13T04:20:50;60.50;33.30;75.79;;
72160;Laerm;60045;51.792;10.938;2023-07-13T04:23:16;61.58;36.09;71.86;;
72160;Laerm;60045;51.792;10.938;2023-07-13T04:25:45;56.63;34.11;73.44;;
72160;Laerm;60045;51.792;10.938;2023-07-13T04:28:11;59.37;34.55;72.22;;
72160;Laerm;60045;51.792;10.938;2023-07-13T04:30:37;61.81;37.43;75.63;;
72160;Laerm;60045;51.792;10.938;2023-07-13T04:33:03;64.94;35.05;78.95;;
72160;Laerm;60045;51.792;10.938;2023-07-13T04:35:29;58.29;34.31;69.85;;
72160;Laerm;60045;51.792;10.938;2023-07-13T04:37:55;62.42;32.08;75.34;;
72160;Laerm;60045;51.792;10.938;2023-07-13T04:40:21;62.83;33.97;78.95;;
72160;Laerm;60045;51.792;10.938;2023-07-13T04:42:47;61.34;33.41;72.43;;
72160;Laerm;60045;51.792;10.938;2023-07-13T04:45:13;59.80;36.11;75.41;;
72160;Laerm;60045;51.792;10.938;2023-07-13T04:47:39;62.92;38.27;74.59;;
72160;Laerm;60045;51.792;10.938;2023-07-13T04:50:05;60.20;35.40;72.70;;
72160;Laerm;60045;51.792;10.938;2023-07-13T04:52:31;63.81;35.43;79.84;;
72160;Laerm;60045;51.792;10.938;2023-07-13T04:54:58;61.33;36.16;72.91;;
72160;Laerm;60045;51.792;10.938;2023-07-13T04:57:23;55.34;31.82;71.33;;
72160;Laerm;60045;51.792;10.938;2023-07-13T04:59:49;62.16;30.26;79.42;;
72160;Laerm;60045;51.792;10.938;2023-07-13T05:02:15;63.45;34.62;76.43;;
72160;Laerm;60045;51.792;10.938;2023-07-13T05:04:41;57.24;32.58;73.43;;
72160;Laerm;60045;51.792;10.938;2023-07-13T05:07:07;65.02;31.62;80.04;;
72160;Laerm;60045;51.792;10.938;2023-07-13T05:09:32;64.24;36.38;80.06;;
72160;Laerm;60045;51.792;10.938;2023-07-13T05:11:58;64.39;39.11;81.69;;
72160;Laerm;60045;51.792;10.938;2023-07-13T05:14:24;60.19;33.17;70.21;;
72160;Laerm;60045;51.792;10.938;2023-07-13T05:16:49;59.66;34.86;74.99;;
72160;Laerm;60045;51.792;10.938;2023-07-13T05:19:15;62.29;33.11;77.91;;
72160;Laerm;60045;51.792;10.938;2023-07-13T05:21:41;55.30;29.72;69.76;;
72160;Laerm;60045;51.792;10.938;2023-07-13T05:24:06;65.96;31.74;82.76;;
72160;Laerm;60045;51.792;10.938;2023-07-13T05:26:32;55.08;29.94;71.27;;
72160;Laerm;60045;51.792;10.938;2023-07-13T05:28:58;62.05;31.42;74.70;;
72160;Laerm;60045;51.792;10.938;2023-07-13T05:31:24;56.53;30.49;71.90;;
72160;Laerm;60045;51.792;10.938;2023-07-13T05:33:50;63.75;35.03;74.82;;
72160;Laerm;60045;51.792;10.938;2023-07-13T05:36:16;67.56;36.28;82.10;;
72160;Laerm;60045;51.792;10.938;2023-07-13T05:38:41;67.11;35.08;82.84;;
72160;Laerm;60045;51.792;10.938;2023-07-13T05:41:07;57.68;32.17;74.37;;
72160;Laerm;60045;51.792;10.938;2023-07-13T05:43:33;58.21;33.02;73.24;;
72160;Laerm;60045;51.792;10.938;2023-07-13T05:45:59;69.50;36.99;92.55;;
72160;Laerm;60045;51.792;10.938;2023-07-13T05:48:24;61.25;33.93;77.00;;
72160;Laerm;60045;51.792;10.938;2023-07-13T05:50:50;54.22;29.15;70.14;;
72160;Laerm;60045;51.792;10.938;2023-07-13T05:53:16;59.04;29.36;75.01;;
72160;Laerm;60045;51.792;10.938;2023-07-13T05:55:42;55.99;30.99;70.61;;
72160;Laerm;60045;51.792;10.938;2023-07-13T05:58:08;59.54;31.57;74.53;;
72160;Laerm;60045;51.792;10.938;2023-07-13T06:00:34;62.09;30.36;77.08;;
72160;Laerm;60045;51.792;10.938;2023-07-13T06:03:00;59.17;32.73;74.89;;
72160;Laerm;60045;51.792;10.938;2023-07-13T06:05:25;62.19;32.63;75.12;;
72160;Laerm;60045;51.792;10.938;2023-07-13T06:07:53;62.98;32.54;79.26;;
72160;Laerm;60045;51.792;10.938;2023-07-13T06:10:19;65.36;39.52;82.98;;
72160;Laerm;60045;51.792;10.938;2023-07-13T06:12:45;66.16;35.32;80.83;;
72160;Laerm;60045;51.792;10.938;2023-07-13T06:15:11;63.55;42.52;77.69;;
72160;Laerm;60045;51.792;10.938;2023-07-13T06:17:36;62.80;36.16;76.17;;
72160;Laerm;60045;51.792;10.938;2023-07-13T06:20:02;60.83;31.86;73.91;;
72160;Laerm;60045;51.792;10.938;2023-07-13T06:22:28;66.48;35.41;79.28;;
72160;Laerm;60045;51.792;10.938;2023-07-13T06:24:53;65.91;37.36;80.64;;
72160;Laerm;60045;51.792;10.938;2023-07-13T06:27:19;67.05;33.01;83.46;;
72160;Laerm;60045;51.792;10.938;2023-07-13T06:29:45;59.08;30.52;70.97;;
72160;Laerm;60045;51.792;10.938;2023-07-13T06:32:10;54.51;30.47;69.00;;
72160;Laerm;60045;51.792;10.938;2023-07-13T06:34:36;61.42;32.35;74.32;;
72160;Laerm;60045;51.792;10.938;2023-07-13T06:37:02;57.58;30.20;72.54;;
72160;Laerm;60045;51.792;10.938;2023-07-13T06:39:28;58.05;31.76;71.91;;
72160;Laerm;60045;51.792;10.938;2023-07-13T06:41:53;61.72;33.11;78.11;;
72160;Laerm;60045;51.792;10.938;2023-07-13T06:44:19;61.21;34.31;71.49;;
72160;Laerm;60045;51.792;10.938;2023-07-13T06:46:45;57.19;32.40;70.78;;
72160;Laerm;60045;51.792;10.938;2023-07-13T06:49:11;63.93;34.51;81.23;;
72160;Laerm;60045;51.792;10.938;2023-07-13T06:51:36;62.30;32.42;77.43;;
72160;Laerm;60045;51.792;10.938;2023-07-13T06:54:03;55.67;33.33;68.67;;
72160;Laerm;60045;51.792;10.938;2023-07-13T06:56:28;63.72;32.91;79.80;;
72160;Laerm;60045;51.792;10.938;2023-07-13T06:58:54;57.82;33.18;71.62;;
72160;Laerm;60045;51.792;10.938;2023-07-13T07:01:20;56.97;31.10;74.17;;
72160;Laerm;60045;51.792;10.938;2023-07-13T07:03:46;59.91;33.23;76.33;;
72160;Laerm;60045;51.792;10.938;2023-07-13T07:08:38;57.57;36.87;72.51;;
72160;Laerm;60045;51.792;10.938;2023-07-13T07:11:04;51.82;35.28;68.31;;
72160;Laerm;60045;51.792;10.938;2023-07-13T07:13:29;59.38;36.67;73.47;;
72160;Laerm;60045;51.792;10.938;2023-07-13T07:15:55;56.30;34.79;68.88;;
72160;Laerm;60045;51.792;10.938;2023-07-13T07:18:21;58.21;37.63;74.95;;
72160;Laerm;60045;51.792;10.938;2023-07-13T07:20:48;64.99;36.89;82.39;;
72160;Laerm;60045;51.792;10.938;2023-07-13T07:23:14;57.49;38.07;74.16;;
72160;Laerm;60045;51.792;10.938;2023-07-13T07:25:39;59.36;37.60;70.56;;
72160;Laerm;60045;51.792;10.938;2023-07-13T07:28:07;57.77;37.59;72.46;;
72160;Laerm;60045;51.792;10.938;2023-07-13T07:30:33;68.26;38.40;90.71;;
72160;Laerm;60045;51.792;10.938;2023-07-13T07:32:58;66.47;43.29;79.25;;
72160;Laerm;60045;51.792;10.938;2023-07-13T07:35:24;57.06;37.25;70.15;;
72160;Laerm;60045;51.792;10.938;2023-07-13T07:37:50;67.35;38.22;87.92;;
72160;Laerm;60045;51.792;10.938;2023-07-13T07:40:16;64.78;35.74;79.20;;
72160;Laerm;60045;51.792;10.938;2023-07-13T07:42:41;62.37;36.56;76.45;;
72160;Laerm;60045;51.792;10.938;2023-07-13T07:45:07;65.22;37.40;82.89;;
72160;Laerm;60045;51.792;10.938;2023-07-13T07:47:33;58.46;38.81;70.80;;
72160;Laerm;60045;51.792;10.938;2023-07-13T07:49:58;63.57;36.08;79.31;;
72160;Laerm;60045;51.792;10.938;2023-07-13T07:52:24;59.33;36.86;70.93;;
72160;Laerm;60045;51.792;10.938;2023-07-13T07:54:50;63.83;40.35;80.48;;
72160;Laerm;60045;51.792;10.938;2023-07-13T07:57:16;63.85;38.75;78.87;;
72160;Laerm;60045;51.792;10.938;2023-07-13T07:59:41;61.73;36.29;75.30;;
72160;Laerm;60045;51.792;10.938;2023-07-13T08:02:08;61.71;38.09;78.69;;
72160;Laerm;60045;51.792;10.938;2023-07-13T08:04:35;62.45;35.46;79.19;;
72160;Laerm;60045;51.792;10.938;2023-07-13T08:07:01;63.61;37.39;77.92;;
72160;Laerm;60045;51.792;10.938;2023-07-13T08:09:27;64.51;37.29;78.87;;
72160;Laerm;60045;51.792;10.938;2023-07-13T08:11:53;58.71;36.63;71.86;;
72160;Laerm;60045;51.792;10.938;2023-07-13T08:14:19;60.91;36.00;74.56;;
72160;Laerm;60045;51.792;10.938;2023-07-13T08:16:45;60.63;35.26;76.55;;
72160;Laerm;60045;51.792;10.938;2023-07-13T08:19:11;57.62;36.17;71.26;;
72160;Laerm;60045;51.792;10.938;2023-07-13T08:21:37;58.77;35.51;72.74;;
72160;Laerm;60045;51.792;10.938;2023-07-13T08:24:03;63.26;39.97;76.42;;
72160;Laerm;60045;51.792;10.938;2023-07-13T08:26:28;60.83;34.58;73.76;;
72160;Laerm;60045;51.792;10.938;2023-07-13T08:28:54;57.63;38.34;71.38;;
72160;Laerm;60045;51.792;10.938;2023-07-13T08:31:20;59.55;34.48;73.79;;
72160;Laerm;60045;51.792;10.938;2023-07-13T08:33:46;55.13;34.38;69.88;;
72160;Laerm;60045;51.792;10.938;2023-07-13T08:36:11;59.19;34.62;71.64;;
72160;Laerm;60045;51.792;10.938;2023-07-13T08:38:37;60.34;36.12;71.06;;
72160;Laerm;60045;51.792;10.938;2023-07-13T08:41:09;60.56;35.09;73.32;;
72160;Laerm;60045;51.792;10.938;2023-07-13T08:43:36;59.64;36.05;74.25;;
72160;Laerm;60045;51.792;10.938;2023-07-13T08:46:05;60.48;35.65;72.32;;
72160;Laerm;60045;51.792;10.938;2023-07-13T08:48:35;60.29;33.63;74.80;;
72160;Laerm;60045;51.792;10.938;2023-07-13T08:51:08;63.38;36.45;79.06;;
72160;Laerm;60045;51.792;10.938;2023-07-13T08:53:38;62.20;37.40;73.37;;
72160;Laerm;60045;51.792;10.938;2023-07-13T08:56:07;56.84;37.34;69.47;;
72160;Laerm;60045;51.792;10.938;2023-07-13T08:58:35;59.08;37.93;71.73;;
72160;Laerm;60045;51.792;10.938;2023-07-13T09:01:14;58.78;35.75;72.03;;
72160;Laerm;60045;51.792;10.938;2023-07-13T09:03:46;65.38;36.35;84.54;;
72160;Laerm;60045;51.792;10.938;2023-07-13T09:06:16;59.57;35.71;73.02;;
72160;Laerm;60045;51.792;10.938;2023-07-13T09:11:21;67.27;37.61;86.71;;
72160;Laerm;60045;51.792;10.938;2023-07-13T09:16:14;58.74;32.45;74.09;;
72160;Laerm;60045;51.792;10.938;2023-07-13T09:18:41;64.65;40.82;78.45;;
72160;Laerm;60045;51.792;10.938;2023-07-13T09:21:09;58.34;37.30;71.42;;
72160;Laerm;60045;51.792;10.938;2023-07-13T09:23:36;62.17;36.85;73.29;;
72160;Laerm;60045;51.792;10.938;2023-07-13T09:26:18;58.06;35.57;69.22;;
72160;Laerm;60045;51.792;10.938;2023-07-13T09:28:46;58.55;32.26;71.99;;
72160;Laerm;60045;51.792;10.938;2023-07-13T09:31:32;58.25;31.23;72.77;;
72160;Laerm;60045;51.792;10.938;2023-07-13T09:33:59;65.05;33.42;87.23;;
72160;Laerm;60045;51.792;10.938;2023-07-13T09:36:29;60.34;35.22;72.61;;
72160;Laerm;60045;51.792;10.938;2023-07-13T09:38:58;58.41;33.08;72.13;;
72160;Laerm;60045;51.792;10.938;2023-07-13T09:41:37;64.65;33.71;78.38;;
72160;Laerm;60045;51.792;10.938;2023-07-13T09:44:09;59.52;32.93;71.53;;
72160;Laerm;60045;51.792;10.938;2023-07-13T09:46:36;59.30;32.05;71.92;;
72160;Laerm;60045;51.792;10.938;2023-07-13T09:49:01;53.22;31.30;66.15;;
72160;Laerm;60045;51.792;10.938;2023-07-13T09:51:27;54.60;31.94;66.76;;
72160;Laerm;60045;51.792;10.938;2023-07-13T09:53:53;58.50;33.71;70.69;;
72160;Laerm;60045;51.792;10.938;2023-07-13T09:56:22;58.44;35.17;70.42;;
72160;Laerm;60045;51.792;10.938;2023-07-13T09:58:48;66.33;42.35;81.43;;
72160;Laerm;60045;51.792;10.938;2023-07-13T10:01:14;63.22;37.52;78.85;;
72160;Laerm;60045;51.792;10.938;2023-07-13T10:03:42;58.74;37.84;71.98;;
72160;Laerm;60045;51.792;10.938;2023-07-13T10:06:23;62.15;35.83;80.10;;
72160;Laerm;60045;51.792;10.938;2023-07-13T10:08:49;58.09;33.93;70.69;;
72160;Laerm;60045;51.792;10.938;2023-07-13T10:11:20;59.13;36.10;73.26;;
72160;Laerm;60045;51.792;10.938;2023-07-13T10:13:57;54.77;34.31;67.63;;
72160;Laerm;60045;51.792;10.938;2023-07-13T10:16:25;61.74;35.69;74.37;;
72160;Laerm;60045;51.792;10.938;2023-07-13T10:18:53;61.02;37.79;72.26;;
72160;Laerm;60045;51.792;10.938;2023-07-13T10:21:21;60.44;38.67;74.19;;
72160;Laerm;60045;51.792;10.938;2023-07-13T10:23:49;64.11;36.37;81.43;;
72160;Laerm;60045;51.792;10.938;2023-07-13T10:26:17;60.42;35.45;75.90;;
72160;Laerm;60045;51.792;10.938;2023-07-13T10:28:45;63.59;36.42;78.53;;
72160;Laerm;60045;51.792;10.938;2023-07-13T10:31:14;62.32;38.58;78.52;;
72160;Laerm;60045;51.792;10.938;2023-07-13T10:33:41;62.10;35.57;74.41;;
72160;Laerm;60045;51.792;10.938;2023-07-13T10:36:19;60.43;32.09;74.20;;
72160;Laerm;60045;51.792;10.938;2023-07-13T10:38:46;54.05;31.88;71.24;;
72160;Laerm;60045;51.792;10.938;2023-07-13T10:41:20;56.20;31.48;72.24;;
72160;Laerm;60045;51.792;10.938;2023-07-13T10:43:47;60.06;32.35;74.10;;
72160;Laerm;60045;51.792;10.938;2023-07-13T10:46:16;62.20;36.36;74.78;;
72160;Laerm;60045;51.792;10.938;2023-07-13T10:48:42;58.63;36.05;70.63;;
72160;Laerm;60045;51.792;10.938;2023-07-13T10:51:10;49.67;35.69;65.87;;
72160;Laerm;60045;51.792;10.938;2023-07-13T10:53:37;63.86;38.40;76.77;;
72160;Laerm;60045;51.792;10.938;2023-07-13T10:56:05;58.91;36.14;75.96;;
72160;Laerm;60045;51.792;10.938;2023-07-13T10:58:39;60.65;38.60;75.58;;
72160;Laerm;60045;51.792;10.938;2023-07-13T11:18:45;57.94;36.75;69.69;;
72160;Laerm;60045;51.792;10.938;2023-07-13T11:21:18;57.98;31.52;71.24;;
72160;Laerm;60045;51.792;10.938;2023-07-13T11:23:44;61.05;33.66;72.97;;
72160;Laerm;60045;51.792;10.938;2023-07-13T11:28:55;62.63;33.60;80.46;;
72160;Laerm;60045;51.792;10.938;2023-07-13T11:31:21;55.40;31.69;72.24;;
72160;Laerm;60045;51.792;10.938;2023-07-13T11:36:14;61.53;34.88;76.18;;
72160;Laerm;60045;51.792;10.938;2023-07-13T11:38:45;59.50;32.95;71.61;;
72160;Laerm;60045;51.792;10.938;2023-07-13T11:43:37;59.66;33.16;73.34;;
72160;Laerm;60045;51.792;10.938;2023-07-13T11:46:13;55.37;31.75;70.74;;
72160;Laerm;60045;51.792;10.938;2023-07-13T11:48:39;62.78;34.10;78.04;;
72160;Laerm;60045;51.792;10.938;2023-07-13T11:51:06;61.46;34.15;74.97;;
72160;Laerm;60045;51.792;10.938;2023-07-13T11:53:40;58.33;31.65;70.06;;
72160;Laerm;60045;51.792;10.938;2023-07-13T11:56:06;59.86;32.39;71.56;;
72160;Laerm;60045;51.792;10.938;2023-07-13T11:58:32;59.23;36.27;72.74;;
72160;Laerm;60045;51.792;10.938;2023-07-13T12:00:58;60.91;33.35;74.42;;
72160;Laerm;60045;51.792;10.938;2023-07-13T12:03:26;63.91;30.24;84.15;;
72160;Laerm;60045;51.792;10.938;2023-07-13T12:05:56;59.61;33.52;72.48;;
72160;Laerm;60045;51.792;10.938;2023-07-13T12:08:22;66.79;33.49;86.43;;
72160;Laerm;60045;51.792;10.938;2023-07-13T12:10:55;63.19;39.34;76.69;;
72160;Laerm;60045;51.792;10.938;2023-07-13T12:13:21;61.74;34.11;72.61;;
72160;Laerm;60045;51.792;10.938;2023-07-13T12:15:47;65.95;35.86;84.05;;
72160;Laerm;60045;51.792;10.938;2023-07-13T12:18:16;60.47;38.51;72.29;;
72160;Laerm;60045;51.792;10.938;2023-07-13T12:20:44;59.97;31.64;74.90;;
72160;Laerm;60045;51.792;10.938;2023-07-13T12:23:23;61.70;34.91;72.34;;
72160;Laerm;60045;51.792;10.938;2023-07-13T12:25:50;58.84;33.95;72.95;;
72160;Laerm;60045;51.792;10.938;2023-07-13T12:28:23;61.13;32.93;73.17;;
72160;Laerm;60045;51.792;10.938;2023-07-13T12:30:59;62.06;33.39;75.43;;
72160;Laerm;60045;51.792;10.938;2023-07-13T12:33:27;57.90;30.94;69.77;;
72160;Laerm;60045;51.792;10.938;2023-07-13T12:35:53;62.79;34.09;77.74;;
72160;Laerm;60045;51.792;10.938;2023-07-13T12:38:20;50.86;30.69;66.81;;
72160;Laerm;60045;51.792;10.938;2023-07-13T12:40:48;59.61;31.17;72.49;;
72160;Laerm;60045;51.792;10.938;2023-07-13T12:43:15;61.74;32.25;72.52;;
72160;Laerm;60045;51.792;10.938;2023-07-13T12:48:22;57.90;30.99;71.62;;
72160;Laerm;60045;51.792;10.938;2023-07-13T12:50:48;62.50;34.88;75.08;;
72160;Laerm;60045;51.792;10.938;2023-07-13T12:53:19;59.42;36.44;70.12;;
72160;Laerm;60045;51.792;10.938;2023-07-13T12:55:46;61.51;36.01;72.74;;
72160;Laerm;60045;51.792;10.938;2023-07-13T12:58:18;63.30;39.58;78.16;;
72160;Laerm;60045;51.792;10.938;2023-07-13T13:00:47;62.87;41.64;74.61;;
72160;Laerm;60045;51.792;10.938;2023-07-13T13:03:21;66.12;40.82;83.45;;
72160;Laerm;60045;51.792;10.938;2023-07-13T13:05:47;61.01;34.76;73.79;;
72160;Laerm;60045;51.792;10.938;2023-07-13T13:08:13;58.36;33.44;70.53;;
72160;Laerm;60045;51.792;10.938;2023-07-13T13:10:38;64.33;35.83;78.74;;
72160;Laerm;60045;51.792;10.938;2023-07-13T13:13:04;60.85;35.44;72.98;;
72160;Laerm;60045;51.792;10.938;2023-07-13T13:15:30;61.21;34.98;72.32;;
72160;Laerm;60045;51.792;10.938;2023-07-13T13:17:56;55.53;31.36;71.81;;
72160;Laerm;60045;51.792;10.938;2023-07-13T13:20:23;59.14;28.87;72.81;;
72160;Laerm;60045;51.792;10.938;2023-07-13T13:22:51;63.98;38.01;72.67;;
72160;Laerm;60045;51.792;10.938;2023-07-13T13:25:17;63.34;36.38;74.84;;
72160;Laerm;60045;51.792;10.938;2023-07-13T13:27:43;54.37;31.07;69.51;;
72160;Laerm;60045;51.792;10.938;2023-07-13T13:30:10;62.14;33.13;77.02;;
72160;Laerm;60045;51.792;10.938;2023-07-13T13:32:38;62.24;35.53;72.42;;
72160;Laerm;60045;51.792;10.938;2023-07-13T13:35:04;60.39;33.54;71.21;;
72160;Laerm;60045;51.792;10.938;2023-07-13T13:37:31;56.76;33.31;72.44;;
72160;Laerm;60045;51.792;10.938;2023-07-13T13:39:57;64.75;39.68;87.50;;
72160;Laerm;60045;51.792;10.938;2023-07-13T13:42:22;60.71;32.78;72.99;;
72160;Laerm;60045;51.792;10.938;2023-07-13T13:44:50;58.36;31.93;71.64;;
72160;Laerm;60045;51.792;10.938;2023-07-13T13:49:50;59.06;34.76;72.56;;
72160;Laerm;60045;51.792;10.938;2023-07-13T13:52:16;59.74;34.08;72.90;;
72160;Laerm;60045;51.792;10.938;2023-07-13T13:54:43;59.22;33.63;73.66;;
72160;Laerm;60045;51.792;10.938;2023-07-13T13:57:09;64.18;36.73;78.80;;
72160;Laerm;60045;51.792;10.938;2023-07-13T13:59:37;66.00;36.67;82.38;;
72160;Laerm;60045;51.792;10.938;2023-07-13T14:02:09;64.91;36.82;79.39;;
72160;Laerm;60045;51.792;10.938;2023-07-13T14:04:41;60.31;35.38;73.47;;
72160;Laerm;60045;51.792;10.938;2023-07-13T14:07:07;62.16;34.61;73.14;;
72160;Laerm;60045;51.792;10.938;2023-07-13T14:09:33;59.75;34.91;71.96;;
72160;Laerm;60045;51.792;10.938;2023-07-13T14:11:58;62.81;38.12;74.22;;